Time;durP1;ratioP1;P1;durP2;ratioP2;P2;SDS_P1;SDS_P2;PMS_P1;PMS_P2;Temp;Humidity;BMP_temperature;BMP_pressure;BME280_temperature;BME280_humidity;BME280_pressure;Samples;Min_cycle;Max_cycle;Signal;HPM_P1;HPM_P2
2021/09/24 00:01:44;;;;;;;11.10;5.30;;;;;;;;;;5047730;28;20040;-76
2021/09/24 00:04:11;;;;;;;13.73;5.40;;;;;;;;;;5049048;28;20028;-76
2021/09/24 00:06:39;;;;;;;9.73;5.50;;;;;;;;;;5047041;28;20064;-77
2021/09/24 00:09:05;;;;;;;9.70;5.07;;;;;;;;;;5049175;28;20033;-75
2021/09/24 00:11:31;;;;;;;12.20;5.53;;;;;;;;;;5047949;28;20037;-75
2021/09/24 00:13:56;;;;;;;13.38;5.82;;;;;;;;;;5049269;28;20033;-76
2021/09/24 00:16:22;;;;;;;10.25;5.32;;;;;;;;;;5047949;28;20029;-77
2021/09/24 00:18:47;;;;;;;9.77;5.38;;;;;;;;;;5049333;28;20029;-76
2021/09/24 00:21:13;;;;;;;12.45;5.95;;;;;;;;;;5047748;28;20032;-76
2021/09/24 00:23:38;;;;;;;19.58;5.47;;;;;;;;;;5048809;28;20033;-76
2021/09/24 00:26:05;;;;;;;17.02;5.80;;;;;;;;;;5047741;28;20528;-76
2021/09/24 00:28:30;;;;;;;13.20;6.25;;;;;;;;;;5048716;28;20061;-76
2021/09/24 00:30:56;;;;;;;10.10;5.30;;;;;;;;;;5051509;28;20362;-77
2021/09/24 00:33:23;;;;;;;14.77;5.47;;;;;;;;;;5051280;28;20036;-76
2021/09/24 00:35:48;;;;;;;20.10;5.70;;;;;;;;;;5053047;28;20025;-76
2021/09/24 00:38:14;;;;;;;12.38;5.30;;;;;;;;;;5052200;28;20082;-77
2021/09/24 00:40:39;;;;;;;10.55;5.38;;;;;;;;;;5054133;28;20070;-76
2021/09/24 00:43:06;;;;;;;9.18;5.43;;;;;;;;;;5053851;28;20116;-76
2021/09/24 00:45:32;;;;;;;11.68;5.50;;;;;;;;;;5051275;28;20527;-76
2021/09/24 00:47:58;;;;;;;19.52;6.53;;;;;;;;;;5051241;28;20129;-76
2021/09/24 00:50:23;;;;;;;11.15;5.22;;;;;;;;;;5052292;28;20039;-76
2021/09/24 00:52:53;;;;;;;9.63;5.90;;;;;;;;;;5050761;28;20381;-76
2021/09/24 00:55:20;;;;;;;10.98;5.90;;;;;;;;;;5052254;28;20484;-76
2021/09/24 00:57:46;;;;;;;13.25;5.13;;;;;;;;;;5052218;28;20033;-76
2021/09/24 01:00:12;;;;;;;12.25;5.57;;;;;;;;;;5052439;28;20032;-76
2021/09/24 01:02:38;;;;;;;12.63;5.68;;;;;;;;;;5050783;28;20032;-76
2021/09/24 01:05:08;;;;;;;11.95;5.45;;;;;;;;;;5052250;28;20029;-76
2021/09/24 01:07:38;;;;;;;13.27;5.43;;;;;;;;;;5048995;28;20047;-76
2021/09/24 01:10:04;;;;;;;15.32;6.30;;;;;;;;;;5032041;28;20112;-75
2021/09/24 01:12:30;;;;;;;10.10;5.95;;;;;;;;;;5031312;28;20025;-77
2021/09/24 01:15:01;;;;;;;12.05;5.50;;;;;;;;;;5032677;28;20035;-76
2021/09/24 01:17:26;;;;;;;11.25;5.15;;;;;;;;;;5032088;28;20533;-76
2021/09/24 01:19:52;;;;;;;12.10;5.70;;;;;;;;;;5032259;28;20108;-76
2021/09/24 01:22:18;;;;;;;10.85;7.25;;;;;;;;;;5031471;28;20029;-76
2021/09/24 01:24:43;;;;;;;13.27;6.05;;;;;;;;;;5031937;28;20068;-75
2021/09/24 01:27:09;;;;;;;15.73;9.30;;;;;;;;;;5031865;28;20083;-76
2021/09/24 01:29:34;;;;;;;12.18;5.93;;;;;;;;;;5031519;28;20068;-76
2021/09/24 01:32:00;;;;;;;13.32;5.65;;;;;;;;;;5032278;28;20329;-75
2021/09/24 01:34:26;;;;;;;12.68;6.15;;;;;;;;;;5031716;28;20369;-76
2021/09/24 01:36:51;;;;;;;20.63;6.00;;;;;;;;;;5031827;28;20045;-75
2021/09/24 01:39:17;;;;;;;11.25;5.70;;;;;;;;;;5031793;28;20036;-76
2021/09/24 01:41:46;;;;;;;11.35;5.80;;;;;;;;;;5031484;28;20436;-73
2021/09/24 01:44:12;;;;;;;11.02;6.20;;;;;;;;;;5030736;28;20091;-76
2021/09/24 01:46:43;;;;;;;14.30;6.35;;;;;;;;;;5030075;28;20025;-73
2021/09/24 01:49:09;;;;;;;8.23;5.47;;;;;;;;;;5030057;28;20075;-73
2021/09/24 01:51:37;;;;;;;9.68;5.50;;;;;;;;;;5029787;28;20038;-76
2021/09/24 01:54:03;;;;;;;10.25;6.00;;;;;;;;;;5041397;28;20037;-76
2021/09/24 01:56:30;;;;;;;13.57;5.97;;;;;;;;;;5050913;28;20474;-76
2021/09/24 01:58:55;;;;;;;13.52;6.32;;;;;;;;;;5050949;28;20039;-76
2021/09/24 02:01:21;;;;;;;10.98;5.80;;;;;;;;;;5050809;28;20465;-76
2021/09/24 02:03:47;;;;;;;11.18;6.32;;;;;;;;;;5050829;28;20400;-72
2021/09/24 02:06:13;;;;;;;10.32;5.47;;;;;;;;;;5050889;28;20028;-72
2021/09/24 02:08:38;;;;;;;14.13;6.05;;;;;;;;;;5050504;28;20036;-73
2021/09/24 02:11:05;;;;;;;13.13;6.32;;;;;;;;;;5050661;28;20025;-73
2021/09/24 02:13:31;;;;;;;9.70;5.72;;;;;;;;;;5050338;28;20024;-72
2021/09/24 02:15:57;;;;;;;12.57;5.93;;;;;;;;;;5051014;28;20384;-72
2021/09/24 02:18:22;;;;;;;12.45;5.63;;;;;;;;;;5050730;28;20060;-71
2021/09/24 02:20:48;;;;;;;13.40;5.40;;;;;;;;;;5049432;28;20674;-71
2021/09/24 02:23:13;;;;;;;15.73;7.32;;;;;;;;;;5049482;28;20483;-71
2021/09/24 02:25:39;;;;;;;11.20;6.47;;;;;;;;;;5049008;28;20063;-72
2021/09/24 02:28:04;;;;;;;9.77;6.10;;;;;;;;;;5050268;28;20443;-72
2021/09/24 02:30:30;;;;;;;15.55;6.20;;;;;;;;;;5050349;28;20037;-77
2021/09/24 02:32:55;;;;;;;13.00;6.47;;;;;;;;;;5050702;28;20064;-76
2021/09/24 02:35:21;;;;;;;14.82;6.57;;;;;;;;;;5050648;28;20088;-74
2021/09/24 02:37:46;;;;;;;14.57;7.05;;;;;;;;;;5049205;28;20037;-76
2021/09/24 02:40:12;;;;;;;10.77;6.88;;;;;;;;;;5049584;28;20021;-77
2021/09/24 02:42:37;;;;;;;16.20;6.80;;;;;;;;;;5049601;28;20048;-77
2021/09/24 02:45:04;;;;;;;14.27;7.00;;;;;;;;;;5050749;28;20115;-73
2021/09/24 02:47:30;;;;;;;15.45;7.22;;;;;;;;;;5048719;28;20028;-75
2021/09/24 02:49:55;;;;;;;11.85;6.88;;;;;;;;;;5048596;28;20044;-76
2021/09/24 02:52:21;;;;;;;13.15;7.18;;;;;;;;;;5048026;28;20067;-76
2021/09/24 02:54:46;;;;;;;14.23;8.68;;;;;;;;;;5049909;28;20200;-77
2021/09/24 02:57:12;;;;;;;12.38;6.50;;;;;;;;;;5050226;28;20087;-76
2021/09/24 02:59:37;;;;;;;29.38;8.73;;;;;;;;;;5049965;28;20362;-76
2021/09/24 03:02:03;;;;;;;15.38;6.35;;;;;;;;;;5052316;28;20366;-77
2021/09/24 03:04:28;;;;;;;11.55;6.40;;;;;;;;;;5048411;28;20036;-76
2021/09/24 03:06:54;;;;;;;13.43;6.30;;;;;;;;;;5049985;28;20029;-76
2021/09/24 03:09:19;;;;;;;47.67;8.75;;;;;;;;;;5050508;28;20108;-75
2021/09/24 03:11:45;;;;;;;8.40;4.60;;;;;;;;;;5051908;28;20032;-75
2021/09/24 03:14:11;;;;;;;6.03;5.10;;;;;;;;;;5050096;28;20392;-77
2021/09/24 03:16:41;;;;;;;16.88;3.85;;;;;;;;;;5052079;28;20056;-77
2021/09/24 03:19:07;;;;;;;5.03;2.50;;;;;;;;;;5049864;28;20075;-76
2021/09/24 03:21:33;;;;;;;3.97;2.58;;;;;;;;;;5048378;28;20132;-75
2021/09/24 03:23:59;;;;;;;2.70;1.92;;;;;;;;;;5049803;28;20104;-76
2021/09/24 03:26:24;;;;;;;3.00;2.00;;;;;;;;;;5048329;28;20491;-76
2021/09/24 03:28:50;;;;;;;2.22;1.40;;;;;;;;;;5049703;28;20053;-75
2021/09/24 03:31:16;;;;;;;8.13;1.52;;;;;;;;;;5048711;28;20516;-75
2021/09/24 03:33:42;;;;;;;4.43;1.52;;;;;;;;;;5049518;28;20032;-75
2021/09/24 03:36:07;;;;;;;1.25;1.15;;;;;;;;;;5048425;28;20031;-75
2021/09/24 03:38:33;;;;;;;2.95;1.27;;;;;;;;;;5049920;28;20476;-77
2021/09/24 03:40:58;;;;;;;2.83;1.00;;;;;;;;;;5048361;28;20063;-76
2021/09/24 03:43:24;;;;;;;1.90;1.08;;;;;;;;;;5048243;28;20117;-76
2021/09/24 03:45:50;;;;;;;5.45;1.85;;;;;;;;;;5048154;28;20059;-77
2021/09/24 03:48:15;;;;;;;2.00;1.48;;;;;;;;;;5049558;28;20036;-77
2021/09/24 03:50:41;;;;;;;1.15;0.93;;;;;;;;;;5029384;28;20025;-77
2021/09/24 03:53:07;;;;;;;3.95;0.98;;;;;;;;;;5029646;28;20071;-77
2021/09/24 03:55:32;;;;;;;1.13;0.80;;;;;;;;;;5029772;28;20485;-76
2021/09/24 03:57:58;;;;;;;2.88;1.10;;;;;;;;;;5028094;28;20030;-75
2021/09/24 04:00:23;;;;;;;2.58;0.80;;;;;;;;;;5028584;28;20037;-75
2021/09/24 04:02:49;;;;;;;5.82;1.33;;;;;;;;;;5031469;28;20037;-77
2021/09/24 04:05:14;;;;;;;4.25;1.33;;;;;;;;;;5033065;28;20326;-77
2021/09/24 04:07:40;;;;;;;10.10;1.15;;;;;;;;;;5048791;28;20028;-76
2021/09/24 04:10:06;;;;;;;3.80;1.27;;;;;;;;;;5053033;28;20033;-76
2021/09/24 04:12:32;;;;;;;6.88;1.40;;;;;;;;;;5051720;28;20033;-76
2021/09/24 04:14:57;;;;;;;1.90;1.10;;;;;;;;;;5053385;28;20100;-77
2021/09/24 04:17:24;;;;;;;5.55;1.10;;;;;;;;;;5053964;28;20044;-76
2021/09/24 04:19:50;;;;;;;6.45;0.90;;;;;;;;;;5051877;28;20445;-75
2021/09/24 04:22:15;;;;;;;1.00;0.90;;;;;;;;;;5053272;28;20029;-75
2021/09/24 04:24:41;;;;;;;3.17;0.85;;;;;;;;;;5051307;28;20485;-76
2021/09/24 04:27:06;;;;;;;5.25;0.90;;;;;;;;;;5051960;28;20044;-76
2021/09/24 04:29:32;;;;;;;2.03;0.85;;;;;;;;;;5051877;28;20448;-76
2021/09/24 04:31:58;;;;;;;5.70;1.10;;;;;;;;;;5053099;28;20115;-76
2021/09/24 04:34:23;;;;;;;4.50;1.02;;;;;;;;;;5051917;28;20033;-75
2021/09/24 04:36:49;;;;;;;2.28;1.30;;;;;;;;;;5052818;28;20086;-76
2021/09/24 04:39:15;;;;;;;15.05;2.13;;;;;;;;;;5052781;28;20037;-74
2021/09/24 04:41:41;;;;;;;3.17;1.00;;;;;;;;;;5052636;28;20506;-76
2021/09/24 04:44:06;;;;;;;5.25;1.25;;;;;;;;;;5051234;28;20244;-74
2021/09/24 04:46:32;;;;;;;2.80;1.00;;;;;;;;;;5052664;28;20029;-76
2021/09/24 04:48:58;;;;;;;2.63;1.10;;;;;;;;;;5051256;28;20116;-77
2021/09/24 04:51:24;;;;;;;4.45;1.33;;;;;;;;;;5051264;28;20028;-77
2021/09/24 04:53:50;;;;;;;2.95;1.10;;;;;;;;;;5052129;28;20102;-77
2021/09/24 04:56:15;;;;;;;3.92;1.20;;;;;;;;;;5052422;28;20025;-77
2021/09/24 04:58:42;;;;;;;4.10;1.30;;;;;;;;;;5051842;28;20079;-73
2021/09/24 05:01:08;;;;;;;2.53;1.10;;;;;;;;;;5050688;28;20033;-71
2021/09/24 05:03:33;;;;;;;2.95;1.20;;;;;;;;;;5050689;28;20040;-72
2021/09/24 05:05:59;;;;;;;2.65;1.30;;;;;;;;;;5050842;28;20031;-72
2021/09/24 05:08:24;;;;;;;3.97;1.45;;;;;;;;;;5052098;28;20107;-72
2021/09/24 05:10:50;;;;;;;4.60;1.40;;;;;;;;;;5050379;28;20397;-73
2021/09/24 05:13:15;;;;;;;6.82;1.30;;;;;;;;;;5037829;28;20428;-72
2021/09/24 05:15:41;;;;;;;4.32;1.63;;;;;;;;;;5029086;28;20040;-74
2021/09/24 05:18:06;;;;;;;5.68;1.75;;;;;;;;;;5042114;28;20466;-71
2021/09/24 05:20:33;;;;;;;2.78;1.27;;;;;;;;;;5045866;28;20502;-72
2021/09/24 05:22:58;;;;;;;10.13;2.60;;;;;;;;;;5051511;28;20037;-72
2021/09/24 05:25:25;;;;;;;8.27;1.60;;;;;;;;;;5049059;28;20413;-73
2021/09/24 05:27:51;;;;;;;4.57;1.27;;;;;;;;;;5048956;28;20029;-71
2021/09/24 05:30:17;;;;;;;3.03;1.27;;;;;;;;;;5051100;28;20057;-72
2021/09/24 05:32:43;;;;;;;5.20;1.05;;;;;;;;;;5049720;28;20036;-71
2021/09/24 05:35:09;;;;;;;3.28;1.88;;;;;;;;;;5050040;28;20476;-72
2021/09/24 05:37:35;;;;;;;2.78;1.50;;;;;;;;;;5049338;28;20374;-70
2021/09/24 05:40:01;;;;;;;3.50;1.40;;;;;;;;;;5051285;28;20035;-74
2021/09/24 05:42:28;;;;;;;5.25;2.03;;;;;;;;;;5049029;28;20025;-72
2021/09/24 05:44:57;;;;;;;3.33;1.75;;;;;;;;;;5049692;28;20033;-73
2021/09/24 05:47:23;;;;;;;3.10;1.20;;;;;;;;;;5051251;28;20395;-71
2021/09/24 05:49:50;;;;;;;7.68;3.10;;;;;;;;;;5050772;28;20442;-73
2021/09/24 05:52:15;;;;;;;5.82;1.50;;;;;;;;;;5050367;28;20044;-74
2021/09/24 05:54:41;;;;;;;3.72;1.67;;;;;;;;;;5049321;28;20029;-73
2021/09/24 05:57:06;;;;;;;5.40;1.95;;;;;;;;;;5050938;28;20033;-73
2021/09/24 05:59:33;;;;;;;3.83;1.60;;;;;;;;;;5049707;28;20025;-73
2021/09/24 06:01:59;;;;;;;5.43;1.75;;;;;;;;;;5055077;28;20044;-75
2021/09/24 06:04:26;;;;;;;6.32;2.38;;;;;;;;;;5051144;28;20033;-71
2021/09/24 06:06:52;;;;;;;6.93;1.85;;;;;;;;;;5049039;28;20391;-72
2021/09/24 06:09:18;;;;;;;2.80;1.65;;;;;;;;;;5062296;28;20032;-73
2021/09/24 06:11:44;;;;;;;6.75;1.20;;;;;;;;;;5053579;28;20074;-73
2021/09/24 06:14:10;;;;;;;3.00;1.40;;;;;;;;;;5065292;28;20037;-72
2021/09/24 06:16:35;;;;;;;6.30;1.50;;;;;;;;;;5056179;28;20461;-72
2021/09/24 06:19:01;;;;;;;2.45;1.60;;;;;;;;;;5055363;28;20037;-73
2021/09/24 06:21:28;;;;;;;5.68;1.75;;;;;;;;;;5047974;28;20433;-74
2021/09/24 06:23:56;;;;;;;6.70;1.70;;;;;;;;;;5046637;28;20256;-74
2021/09/24 06:26:23;;;;;;;9.88;1.48;;;;;;;;;;5053315;28;20020;-75
2021/09/24 06:28:49;;;;;;;4.50;1.33;;;;;;;;;;5033880;28;20098;-73
2021/09/24 06:31:15;;;;;;;13.60;2.22;;;;;;;;;;5040126;28;20072;-75
2021/09/24 06:33:43;;;;;;;6.35;2.22;;;;;;;;;;5037860;28;20380;-75
2021/09/24 06:36:09;;;;;;;1.45;1.20;;;;;;;;;;5041284;28;20039;-74
2021/09/24 06:38:35;;;;;;;4.07;1.60;;;;;;;;;;5038362;28;20033;-75
2021/09/24 06:41:01;;;;;;;2.70;1.20;;;;;;;;;;5040102;28;20036;-73
2021/09/24 06:43:27;;;;;;;3.92;1.20;;;;;;;;;;5040653;28;20434;-73
2021/09/24 06:45:53;;;;;;;5.25;1.30;;;;;;;;;;5041106;28;20025;-73
2021/09/24 06:48:18;;;;;;;9.02;2.78;;;;;;;;;;5038987;28;20039;-74
2021/09/24 06:50:44;;;;;;;7.75;1.42;;;;;;;;;;5040547;28;20154;-74
2021/09/24 06:53:09;;;;;;;5.82;1.33;;;;;;;;;;5039125;28;20043;-73
2021/09/24 06:55:35;;;;;;;3.15;1.00;;;;;;;;;;5039413;28;20035;-74
2021/09/24 06:58:01;;;;;;;4.55;1.60;;;;;;;;;;5033616;28;20731;-74
2021/09/24 07:00:27;;;;;;;3.65;1.45;;;;;;;;;;5036358;28;20029;-73
2021/09/24 07:02:52;;;;;;;4.15;1.23;;;;;;;;;;5039228;28;20132;-74
2021/09/24 07:05:18;;;;;;;6.32;1.10;;;;;;;;;;5036136;28;20043;-72
2021/09/24 07:07:45;;;;;;;6.43;1.52;;;;;;;;;;5037088;28;20052;-73
2021/09/24 07:10:11;;;;;;;3.28;1.33;;;;;;;;;;5028764;28;20515;-73
2021/09/24 07:12:37;;;;;;;6.85;1.30;;;;;;;;;;5039164;28;20043;-73
2021/09/24 07:15:05;;;;;;;2.53;1.10;;;;;;;;;;5037261;28;20032;-73
2021/09/24 07:17:30;;;;;;;9.07;2.00;;;;;;;;;;5038886;28;20735;-73
2021/09/24 07:19:56;;;;;;;2.78;1.60;;;;;;;;;;5035744;28;20036;-72
2021/09/24 07:22:23;;;;;;;6.68;1.75;;;;;;;;;;5037940;28;20033;-72
2021/09/24 07:24:50;;;;;;;5.43;1.60;;;;;;;;;;5037705;28;20035;-72
2021/09/24 07:27:16;;;;;;;7.90;1.77;;;;;;;;;;5035706;28;20036;-72
2021/09/24 07:29:42;;;;;;;4.40;1.40;;;;;;;;;;5041146;28;20123;-72
2021/09/24 07:32:08;;;;;;;7.88;1.98;;;;;;;;;;5037388;28;20556;-71
2021/09/24 07:34:34;;;;;;;5.70;1.77;;;;;;;;;;5005930;28;20094;-71
2021/09/24 07:37:00;;;;;;;9.73;1.88;;;;;;;;;;5038568;28;20068;-72
2021/09/24 07:39:25;;;;;;;4.95;1.42;;;;;;;;;;5038657;28;20036;-73
2021/09/24 07:41:51;;;;;;;4.95;1.73;;;;;;;;;;5036948;28;20025;-72
2021/09/24 07:44:17;;;;;;;4.07;1.35;;;;;;;;;;5024321;28;20446;-73
2021/09/24 07:46:44;;;;;;;6.00;2.20;;;;;;;;;;5038621;28;20040;-73
2021/09/24 07:49:10;;;;;;;6.80;1.52;;;;;;;;;;5039803;28;20029;-73
2021/09/24 07:51:36;;;;;;;5.38;1.40;;;;;;;;;;5041122;28;20029;-72
2021/09/24 07:54:02;;;;;;;14.15;2.17;;;;;;;;;;5041473;28;20051;-72
2021/09/24 07:56:28;;;;;;;5.07;1.80;;;;;;;;;;5041417;28;20132;-73
2021/09/24 07:58:55;;;;;;;23.48;3.65;;;;;;;;;;5039821;28;20147;-72
2021/09/24 08:01:21;;;;;;;165.73;10.02;;;;;;;;;;5037409;28;20227;-71
2021/09/24 08:03:47;;;;;;;7.03;1.48;;;;;;;;;;5039039;28;20025;-73
2021/09/24 08:06:14;;;;;;;18.33;1.92;;;;;;;;;;5040117;28;20033;-73
2021/09/24 08:08:39;;;;;;;11.65;1.88;;;;;;;;;;5039979;28;20044;-72
2021/09/24 08:11:05;;;;;;;21.25;2.55;;;;;;;;;;5035505;28;20044;-74
2021/09/24 08:13:31;;;;;;;4.57;1.42;;;;;;;;;;5036647;28;20048;-73
2021/09/24 08:15:57;;;;;;;4.25;1.77;;;;;;;;;;5033028;28;20457;-72
2021/09/24 08:18:23;;;;;;;7.10;1.88;;;;;;;;;;5040779;28;20534;-72
2021/09/24 08:20:49;;;;;;;16.55;1.95;;;;;;;;;;5037540;28;20603;-71
2021/09/24 08:23:16;;;;;;;3.15;1.42;;;;;;;;;;5032323;28;20108;-72
2021/09/24 08:25:41;;;;;;;8.73;2.92;;;;;;;;;;5037252;28;20550;-72
2021/09/24 08:28:07;;;;;;;15.02;2.20;;;;;;;;;;5039921;28;20064;-71
2021/09/24 08:30:34;;;;;;;5.28;1.70;;;;;;;;;;5039555;28;20033;-73
2021/09/24 08:33:02;;;;;;;12.40;1.60;;;;;;;;;;5021139;28;20127;-74
2021/09/24 08:35:29;;;;;;;3.70;1.63;;;;;;;;;;5038755;28;20025;-72
2021/09/24 08:37:55;;;;;;;22.48;2.58;;;;;;;;;;5040763;28;20137;-73
2021/09/24 08:40:23;;;;;;;5.43;1.52;;;;;;;;;;5034427;28;20181;-72
2021/09/24 08:42:49;;;;;;;14.77;1.95;;;;;;;;;;5033245;28;20039;-74
2021/09/24 08:45:23;;;;;;;9.55;2.30;;;;;;;;;;5038745;28;20119;-71
2021/09/24 08:47:51;;;;;;;11.95;2.08;;;;;;;;;;5037309;28;20033;-72
2021/09/24 08:50:17;;;;;;;7.38;1.75;;;;;;;;;;5039461;28;20036;-76
2021/09/24 08:52:42;;;;;;;12.52;2.45;;;;;;;;;;5040788;28;20036;-74
2021/09/24 08:55:10;;;;;;;8.98;2.08;;;;;;;;;;5041808;28;20067;-74
2021/09/24 08:57:36;;;;;;;6.38;2.08;;;;;;;;;;5039047;28;20024;-73
2021/09/24 09:00:07;;;;;;;5.22;1.67;;;;;;;;;;5042158;28;20087;-73
2021/09/24 09:02:54;;;;;;;3.55;2.65;;;;;;;;;;5040683;28;20028;-75
2021/09/24 09:05:25;;;;;;;10.25;1.98;;;;;;;;;;5039426;28;20029;-73
2021/09/24 09:08:24;;;;;;;3.35;1.92;;;;;;;;;;5036648;28;20086;-74
2021/09/24 09:10:59;;;;;;;3.83;1.63;;;;;;;;;;5036880;28;20044;-74
2021/09/24 09:13:34;;;;;;;5.50;1.92;;;;;;;;;;5039782;28;20036;-75
2021/09/24 09:16:05;;;;;;;6.60;2.50;;;;;;;;;;5033054;28;20500;-73
2021/09/24 09:18:34;;;;;;;7.40;1.80;;;;;;;;;;5036110;28;20029;-74
2021/09/24 09:21:03;;;;;;;5.70;1.70;;;;;;;;;;5039551;28;20119;-75
2021/09/24 09:23:30;;;;;;;8.02;1.40;;;;;;;;;;5040490;28;20051;-73
2021/09/24 09:26:00;;;;;;;6.60;1.70;;;;;;;;;;5041132;28;20037;-74
2021/09/24 09:28:41;;;;;;;4.18;2.15;;;;;;;;;;5038213;28;20110;-76
2021/09/24 09:31:26;;;;;;;3.75;1.92;;;;;;;;;;5039931;28;20040;-74
2021/09/24 09:34:01;;;;;;;7.43;1.73;;;;;;;;;;5042518;28;20055;-72
2021/09/24 09:36:37;;;;;;;3.25;1.13;;;;;;;;;;5038117;28;20144;-75
2021/09/24 09:39:11;;;;;;;2.70;1.30;;;;;;;;;;5039187;28;20207;-72
2021/09/24 09:41:53;;;;;;;3.85;1.60;;;;;;;;;;5040334;28;20120;-75
2021/09/24 09:44:29;;;;;;;1.80;1.30;;;;;;;;;;5041374;28;20072;-74
2021/09/24 09:46:56;;;;;;;2.55;1.20;;;;;;;;;;5038867;28;20035;-74
2021/09/24 09:49:25;;;;;;;6.13;1.95;;;;;;;;;;5042228;28;20099;-73
2021/09/24 09:52:06;;;;;;;2.22;0.93;;;;;;;;;;5042438;28;20037;-75
2021/09/24 09:54:33;;;;;;;3.58;1.50;;;;;;;;;;5042272;28;20035;-74
2021/09/24 09:57:19;;;;;;;1.83;1.38;;;;;;;;;;5042904;28;20029;-74
2021/09/24 09:59:56;;;;;;;2.92;1.65;;;;;;;;;;5037837;28;20131;-72
2021/09/24 10:02:28;;;;;;;3.40;1.25;;;;;;;;;;5038972;28;20027;-75
2021/09/24 10:04:57;;;;;;;14.95;2.75;;;;;;;;;;5039933;28;20029;-74
2021/09/24 10:07:24;;;;;;;14.10;2.47;;;;;;;;;;5041252;28;20021;-73
2021/09/24 10:10:05;;;;;;;7.35;1.77;;;;;;;;;;5038710;28;20044;-74
2021/09/24 10:12:30;;;;;;;4.60;1.30;;;;;;;;;;5041224;28;20037;-76
2021/09/24 10:14:56;;;;;;;2.92;1.63;;;;;;;;;;5039048;28;20037;-77
2021/09/24 10:17:23;;;;;;;4.65;1.80;;;;;;;;;;5038412;28;20021;-74
2021/09/24 10:19:50;;;;;;;7.38;1.52;;;;;;;;;;5038853;28;20021;-75
2021/09/24 10:22:16;;;;;;;13.25;1.95;;;;;;;;;;5037775;28;20108;-74
2021/09/24 10:24:42;;;;;;;3.72;1.30;;;;;;;;;;5037560;28;20029;-76
2021/09/24 10:27:15;;;;;;;1.75;1.10;;;;;;;;;;5036456;28;20059;-75
2021/09/24 10:29:44;;;;;;;10.48;1.63;;;;;;;;;;5037060;28;20053;-75
2021/09/24 10:32:18;;;;;;;2.05;1.17;;;;;;;;;;5037426;28;20072;-74
2021/09/24 10:35:00;;;;;;;2.00;1.20;;;;;;;;;;5039375;28;20037;-76
2021/09/24 10:37:31;;;;;;;2.13;1.40;;;;;;;;;;5051795;28;20032;-76
2021/09/24 10:39:59;;;;;;;4.38;1.23;;;;;;;;;;5045734;28;20064;-75
2021/09/24 10:42:37;;;;;;;6.35;1.73;;;;;;;;;;5034664;28;20024;-75
2021/09/24 10:45:17;;;;;;;4.65;1.40;;;;;;;;;;5026306;28;20579;-76
2021/09/24 10:48:06;;;;;;;2.53;1.10;;;;;;;;;;5053283;28;20545;-75
2021/09/24 10:50:33;;;;;;;3.80;1.67;;;;;;;;;;5052132;28;20024;-75
2021/09/24 10:53:23;;;;;;;4.30;1.60;;;;;;;;;;5047492;28;20048;-75
2021/09/24 10:55:52;;;;;;;6.70;1.17;;;;;;;;;;5045360;28;20028;-76
2021/09/24 10:58:26;;;;;;;4.72;1.40;;;;;;;;;;5056255;28;20033;-74
2021/09/24 11:01:12;;;;;;;20.58;2.75;;;;;;;;;;5053182;28;20029;-75
2021/09/24 11:03:55;;;;;;;2.42;1.40;;;;;;;;;;5033726;28;20113;-75
2021/09/24 11:06:37;;;;;;;1.75;1.10;;;;;;;;;;5039547;28;20222;-75
2021/09/24 11:09:10;;;;;;;4.68;1.45;;;;;;;;;;5049429;28;20480;-76
2021/09/24 11:11:39;;;;;;;1.88;1.08;;;;;;;;;;5047990;28;20024;-74
2021/09/24 11:14:29;;;;;;;5.85;1.35;;;;;;;;;;5039879;28;20082;-76
2021/09/24 11:16:56;;;;;;;3.83;1.25;;;;;;;;;;5044064;28;20055;-76
2021/09/24 11:19:45;;;;;;;3.83;1.20;;;;;;;;;;5047650;28;20037;-75
2021/09/24 11:22:14;;;;;;;6.30;1.33;;;;;;;;;;5035474;28;20450;-76
2021/09/24 11:25:06;;;;;;;1.95;1.40;;;;;;;;;;5031048;28;20033;-76
2021/09/24 11:27:43;;;;;;;6.75;1.33;;;;;;;;;;5049898;28;20497;-77
2021/09/24 11:30:12;;;;;;;3.80;1.27;;;;;;;;;;5041772;28;20187;-74
2021/09/24 11:32:41;;;;;;;5.60;2.40;;;;;;;;;;5053763;28;20037;-75
2021/09/24 11:35:10;;;;;;;4.72;1.40;;;;;;;;;;5047072;28;20057;-75
2021/09/24 11:37:40;;;;;;;2.33;1.10;;;;;;;;;;5045067;28;20032;-74
2021/09/24 11:40:10;;;;;;;1.92;1.42;;;;;;;;;;5045365;28;20431;-75
2021/09/24 11:42:48;;;;;;;5.13;1.58;;;;;;;;;;5051367;28;20431;-76
2021/09/24 11:45:16;;;;;;;3.97;1.88;;;;;;;;;;5048254;28;20373;-75
2021/09/24 11:47:44;;;;;;;9.10;2.08;;;;;;;;;;5043627;28;20033;-76
2021/09/24 11:50:16;;;;;;;4.55;1.30;;;;;;;;;;5052409;28;20132;-76
2021/09/24 11:52:53;;;;;;;6.35;1.77;;;;;;;;;;5052776;28;20124;-75
2021/09/24 11:55:25;;;;;;;12.30;2.50;;;;;;;;;;5048523;28;20035;-74
2021/09/24 11:58:17;;;;;;;6.15;1.50;;;;;;;;;;5050745;28;20059;-76
2021/09/24 12:00:54;;;;;;;4.75;1.58;;;;;;;;;;5052346;28;20023;-75
2021/09/24 12:03:23;;;;;;;4.95;1.63;;;;;;;;;;5039004;28;20487;-75
2021/09/24 12:06:02;;;;;;;26.33;2.47;;;;;;;;;;5046591;28;20039;-75
2021/09/24 12:08:30;;;;;;;16.52;2.25;;;;;;;;;;5043333;28;20131;-76
2021/09/24 12:11:00;;;;;;;5.30;2.08;;;;;;;;;;5037762;28;20033;-76
2021/09/24 12:13:50;;;;;;;8.35;2.25;;;;;;;;;;5033391;28;20036;-74
2021/09/24 12:16:27;;;;;;;3.70;1.20;;;;;;;;;;5036189;28;20127;-75
2021/09/24 12:19:01;;;;;;;1.33;1.10;;;;;;;;;;5047782;28;20029;-75
2021/09/24 12:21:48;;;;;;;3.95;1.20;;;;;;;;;;5049791;28;20016;-76
2021/09/24 12:24:18;;;;;;;70.88;5.38;;;;;;;;;;5034780;28;20457;-76
2021/09/24 12:27:01;;;;;;;5.50;1.25;;;;;;;;;;5057218;28;20047;-75
2021/09/24 12:29:28;;;;;;;3.72;1.40;;;;;;;;;;5046662;28;20140;-76
2021/09/24 12:31:56;;;;;;;4.05;1.55;;;;;;;;;;5044570;28;20925;-76
2021/09/24 12:34:39;;;;;;;5.63;1.50;;;;;;;;;;5039505;28;20393;-75
2021/09/24 12:37:05;;;;;;;4.75;1.75;;;;;;;;;;5040965;28;20127;-75
2021/09/24 12:39:34;;;;;;;7.80;1.38;;;;;;;;;;5047747;28;20033;-77
2021/09/24 12:42:11;;;;;;;14.88;1.75;;;;;;;;;;5045478;28;20028;-74
2021/09/24 12:44:58;;;;;;;10.80;1.52;;;;;;;;;;5032553;28;20542;-75
2021/09/24 12:47:28;;;;;;;7.10;1.83;;;;;;;;;;5055826;28;20024;-76
2021/09/24 12:49:56;;;;;;;6.75;1.75;;;;;;;;;;5041262;28;20040;-76
2021/09/24 12:52:24;;;;;;;3.70;1.20;;;;;;;;;;5043086;28;20030;-75
2021/09/24 12:54:51;;;;;;;2.42;1.40;;;;;;;;;;5025589;28;20041;-77
2021/09/24 12:57:18;;;;;;;12.52;2.08;;;;;;;;;;5023777;28;20032;-75
2021/09/24 12:59:52;;;;;;;2.78;1.27;;;;;;;;;;5055097;28;20035;-76
2021/09/24 13:02:18;;;;;;;2.08;1.15;;;;;;;;;;5061116;28;20028;-77
2021/09/24 13:04:46;;;;;;;4.80;1.67;;;;;;;;;;5052881;28;20073;-76
2021/09/24 13:07:25;;;;;;;2.33;1.48;;;;;;;;;;5041601;28;20510;-76
2021/09/24 13:10:05;;;;;;;6.57;1.27;;;;;;;;;;5036614;28;20040;-77
2021/09/24 13:12:31;;;;;;;9.65;2.15;;;;;;;;;;5028968;28;20148;-77
2021/09/24 13:14:57;;;;;;;3.03;1.50;;;;;;;;;;5034821;28;20410;-74
2021/09/24 13:17:24;;;;;;;3.88;2.15;;;;;;;;;;5057857;28;20020;-77
2021/09/24 13:19:49;;;;;;;8.27;2.45;;;;;;;;;;5043938;28;20028;-76
2021/09/24 13:22:15;;;;;;;7.32;1.48;;;;;;;;;;5041436;28;20481;-75
2021/09/24 13:24:41;;;;;;;3.78;1.75;;;;;;;;;;5029050;28;20545;-75
2021/09/24 13:27:07;;;;;;;4.47;1.90;;;;;;;;;;5040619;28;20048;-77
2021/09/24 13:29:33;;;;;;;6.97;2.08;;;;;;;;;;5048330;28;20045;-75
2021/09/24 13:31:58;;;;;;;17.58;2.17;;;;;;;;;;5031620;28;20059;-75
2021/09/24 13:34:24;;;;;;;5.03;1.75;;;;;;;;;;5046331;28;20033;-77
2021/09/24 13:36:50;;;;;;;6.47;1.67;;;;;;;;;;5035949;28;20226;-76
2021/09/24 13:39:16;;;;;;;8.50;2.33;;;;;;;;;;5044979;28;20493;-77
2021/09/24 13:41:43;;;;;;;6.90;2.33;;;;;;;;;;5043421;28;20031;-76
2021/09/24 13:44:08;;;;;;;13.38;2.53;;;;;;;;;;5048098;28;20532;-76
2021/09/24 13:46:34;;;;;;;13.27;2.38;;;;;;;;;;5037943;28;20641;-76
2021/09/24 13:48:59;;;;;;;14.00;2.10;;;;;;;;;;5033273;28;20056;-76
2021/09/24 13:51:25;;;;;;;43.42;5.57;;;;;;;;;;5045719;28;20028;-77
2021/09/24 13:53:51;;;;;;;5.88;2.30;;;;;;;;;;5035027;28;20128;-76
2021/09/24 13:56:17;;;;;;;5.70;2.28;;;;;;;;;;5046532;28;20063;-76
2021/09/24 13:58:43;;;;;;;14.43;3.05;;;;;;;;;;5040463;28;20029;-76
2021/09/24 14:01:09;;;;;;;5.82;2.50;;;;;;;;;;5046818;28;20483;-77
2021/09/24 14:03:35;;;;;;;11.50;2.70;;;;;;;;;;5044279;28;20052;-77
2021/09/24 14:06:04;;;;;;;4.57;3.10;;;;;;;;;;5020141;28;20499;-77
2021/09/24 14:08:31;;;;;;;6.28;2.78;;;;;;;;;;5042781;28;20403;-77
2021/09/24 14:10:56;;;;;;;12.30;2.90;;;;;;;;;;5028718;28;20029;-78
2021/09/24 14:13:23;;;;;;;5.72;3.20;;;;;;;;;;5035783;28;20052;-74
2021/09/24 14:15:52;;;;;;;6.72;3.10;;;;;;;;;;5046310;28;20024;-78
2021/09/24 14:18:18;;;;;;;8.05;3.63;;;;;;;;;;5032343;28;20079;-76
2021/09/24 14:20:44;;;;;;;8.60;3.58;;;;;;;;;;5046547;28;20036;-75
2021/09/24 14:23:10;;;;;;;10.05;3.42;;;;;;;;;;5040904;28;20033;-75
2021/09/24 14:25:36;;;;;;;6.82;3.83;;;;;;;;;;5039501;28;20366;-76
2021/09/24 14:28:02;;;;;;;9.13;4.38;;;;;;;;;;5043975;28;20044;-76
2021/09/24 14:30:28;;;;;;;7.82;4.97;;;;;;;;;;5036391;28;20041;-78
2021/09/24 14:32:53;;;;;;;10.35;4.80;;;;;;;;;;5035550;28;20113;-76
2021/09/24 14:35:20;;;;;;;15.57;4.30;;;;;;;;;;5049393;28;20028;-76
2021/09/24 14:37:47;;;;;;;25.05;7.68;;;;;;;;;;5050199;28;20036;-77
2021/09/24 14:40:18;;;;;;;9.98;5.78;;;;;;;;;;5041800;28;20032;-76
2021/09/24 14:42:45;;;;;;;19.30;5.38;;;;;;;;;;5040297;28;20036;-76
2021/09/24 14:45:12;;;;;;;41.75;6.70;;;;;;;;;;5041797;28;20283;-77